createdAt,value
2022-11-21T00:01:52.410Z,100307.50
2022-11-21T00:04:21.683Z,100349.97
2022-11-21T00:06:53.181Z,100354.25
2022-11-21T00:09:22.614Z,100351.47
2022-11-21T00:11:53.991Z,100368.47
2022-11-21T00:14:28.357Z,100371.97
2022-11-21T00:16:59.798Z,100367.75
2022-11-21T00:19:29.054Z,100368.97
2022-11-21T00:21:58.345Z,100369.28
2022-11-21T00:24:27.644Z,100361.69
2022-11-21T00:27:02.083Z,100376.78
2022-11-21T00:29:31.566Z,100363.91
2022-11-21T00:32:02.718Z,100355.00
2022-11-21T00:34:32.082Z,100354.19
2022-11-21T00:37:01.363Z,100331.56
2022-11-21T00:39:30.638Z,100339.31
2022-11-21T00:41:59.819Z,100328.88
2022-11-21T00:44:29.205Z,100355.00
2022-11-21T00:46:58.705Z,100348.19
2022-11-21T00:49:30.184Z,100359.34
2022-11-21T00:51:59.404Z,100338.69
2022-11-21T00:54:28.903Z,100340.66
2022-11-21T00:56:58.396Z,100379.16
2022-11-21T00:59:27.456Z,100358.13
2022-11-21T01:02:01.743Z,100345.56
2022-11-21T01:04:35.327Z,100347.44
2022-11-21T01:07:04.743Z,100331.72
2022-11-21T01:09:33.843Z,100331.88
2022-11-21T01:12:02.892Z,100342.69
2022-11-21T01:14:32.128Z,100341.34
2022-11-21T01:17:01.324Z,100338.66
2022-11-21T01:19:30.387Z,100347.00
2022-11-21T01:22:01.530Z,100329.31
2022-11-21T01:24:30.950Z,100337.16
2022-11-21T01:27:00.017Z,100327.81
2022-11-21T01:29:29.715Z,100289.06
2022-11-21T01:31:58.869Z,100302.44
2022-11-21T01:34:28.863Z,100316.34
2022-11-21T01:37:03.224Z,100305.44
2022-11-21T01:39:34.440Z,100299.03
2022-11-21T01:42:03.638Z,100305.47
2022-11-21T01:44:54.250Z,100292.88
2022-11-21T01:47:24.437Z,100289.06
2022-11-21T01:49:56.200Z,100269.94
2022-11-21T01:52:27.734Z,100268.94
2022-11-21T01:55:01.779Z,100283.78
2022-11-21T01:57:39.163Z,100277.41
2022-11-21T02:00:12.452Z,100276.03
2022-11-21T02:02:46.286Z,100268.53
2022-11-21T02:05:21.268Z,100262.72
2022-11-21T02:07:59.247Z,100264.94
2022-11-21T02:10:30.671Z,100273.31
2022-11-21T02:13:06.346Z,100278.28
2022-11-21T02:15:35.635Z,100279.00
2022-11-21T02:18:04.732Z,100291.00
2022-11-21T02:20:52.209Z,100283.38
2022-11-21T02:23:27.341Z,100293.31
2022-11-21T02:25:58.611Z,100261.06
2022-11-21T02:28:28.606Z,100257.59
2022-11-21T02:30:57.704Z,100249.53
2022-11-21T02:33:26.947Z,100246.31
2022-11-21T02:36:00.204Z,100260.75
2022-11-21T02:38:44.537Z,100250.69
2022-11-21T02:41:25.992Z,100259.31
2022-11-21T02:44:06.544Z,100254.03
2022-11-21T02:46:37.057Z,100256.19
2022-11-21T02:49:14.743Z,100242.91
2022-11-21T02:51:43.905Z,100258.34
2022-11-21T02:54:13.021Z,100254.59
2022-11-21T02:56:44.282Z,100252.41
2022-11-21T02:59:13.398Z,100247.72
2022-11-21T03:01:42.556Z,100220.22
2022-11-21T03:04:12.063Z,100242.66
2022-11-21T03:06:41.178Z,100231.88
2022-11-21T03:09:12.278Z,100228.47
2022-11-21T03:11:43.527Z,100237.44
2022-11-21T03:14:13.117Z,100240.16
2022-11-21T03:16:42.335Z,100260.25
2022-11-21T03:19:11.501Z,100253.38
2022-11-21T03:21:46.182Z,100231.34
2022-11-21T03:24:15.598Z,100236.50
2022-11-21T03:26:46.887Z,100242.16
2022-11-21T03:29:16.048Z,100234.84
2022-11-21T03:31:45.551Z,100234.84
2022-11-21T03:34:14.764Z,100243.97
2022-11-21T03:36:43.947Z,100212.28
2022-11-21T03:39:13.196Z,100249.47
2022-11-21T03:41:47.323Z,100255.03
2022-11-21T03:44:18.777Z,100247.53
2022-11-21T03:46:49.103Z,100250.66
2022-11-21T03:49:18.507Z,100265.63
2022-11-21T03:51:47.689Z,100246.94
2022-11-21T03:56:51.820Z,100265.38
2022-11-21T03:59:23.104Z,100247.38
2022-11-21T04:01:57.373Z,100247.63
2022-11-21T04:04:26.926Z,100259.31
2022-11-21T04:06:56.258Z,100252.16
2022-11-21T04:09:25.965Z,100248.06
2022-11-21T04:11:55.270Z,100226.66
2022-11-21T04:14:26.743Z,100249.47
2022-11-21T04:16:56.188Z,100236.25
2022-11-21T04:19:25.418Z,100240.75
2022-11-21T04:21:54.956Z,100241.22
2022-11-21T04:24:24.058Z,100230.22
2022-11-21T04:26:53.275Z,100244.59
2022-11-21T04:29:22.619Z,100230.38
2022-11-21T04:31:54.003Z,100237.69
2022-11-21T04:34:23.368Z,100235.72
2022-11-21T04:36:52.587Z,100231.03
2022-11-21T04:39:21.856Z,100235.63
2022-11-21T04:41:56.212Z,100235.72
2022-11-21T04:44:26.145Z,100225.16
2022-11-21T04:47:05.526Z,100216.03
2022-11-21T04:49:35.008Z,100189.16
2022-11-21T04:52:10.027Z,100222.66
2022-11-21T04:54:39.322Z,100220.56
2022-11-21T04:57:09.885Z,100211.94
2022-11-21T04:59:39.189Z,100210.78
2022-11-21T05:02:10.889Z,100212.88
2022-11-21T05:04:40.778Z,100215.84
2022-11-21T05:07:10.425Z,100207.69
2022-11-21T05:09:44.804Z,100214.38
2022-11-21T05:12:26.861Z,100215.59
2022-11-21T05:15:02.710Z,100198.72
2022-11-21T05:17:35.308Z,100214.22
2022-11-21T05:20:05.170Z,100212.03
2022-11-21T05:22:34.255Z,100207.94
2022-11-21T05:25:03.683Z,100193.94
2022-11-21T05:27:38.006Z,100206.03
2022-11-21T05:30:08.263Z,100209.41
2022-11-21T05:32:39.492Z,100219.84
2022-11-21T05:35:09.270Z,100205.50
2022-11-21T05:37:38.428Z,100214.19
2022-11-21T05:40:09.476Z,100209.75
2022-11-21T05:42:54.326Z,100217.25
2022-11-21T05:45:23.588Z,100217.06
2022-11-21T05:47:54.726Z,100176.53
2022-11-21T05:50:29.148Z,100200.03
2022-11-21T05:53:02.681Z,100192.44
2022-11-21T05:55:32.336Z,100201.28
2022-11-21T05:58:02.227Z,100202.88
2022-11-21T06:00:32.732Z,100195.63
2022-11-21T06:03:28.837Z,100191.06
2022-11-21T06:06:07.994Z,100179.09
2022-11-21T06:08:39.069Z,100187.59
2022-11-21T06:11:09.844Z,100192.81
2022-11-21T06:13:39.618Z,100191.06
2022-11-21T06:16:16.059Z,100192.69
2022-11-21T06:18:49.955Z,100200.84
2022-11-21T06:21:22.403Z,100210.09
2022-11-21T06:23:53.818Z,100200.47
2022-11-21T06:26:24.818Z,100206.06
2022-11-21T06:28:54.420Z,100202.28
2022-11-21T06:31:25.081Z,100187.19
2022-11-21T06:33:57.629Z,100185.56
2022-11-21T06:36:27.998Z,100196.44
2022-11-21T06:38:58.195Z,100183.22
2022-11-21T06:41:34.853Z,100206.38
2022-11-21T06:44:04.185Z,100208.91
2022-11-21T06:46:33.426Z,100201.41
2022-11-21T06:49:10.492Z,100198.59
2022-11-21T06:51:46.905Z,100173.88
2022-11-21T06:54:21.292Z,100174.41
2022-11-21T06:56:55.175Z,100203.22
2022-11-21T06:59:29.571Z,100202.19
2022-11-21T07:01:58.766Z,100206.59
2022-11-21T07:04:30.074Z,100198.06
2022-11-21T07:06:59.621Z,100203.81
2022-11-21T07:09:33.675Z,100156.94
2022-11-21T07:12:23.560Z,100182.34
2022-11-21T07:14:51.388Z,100189.38
2022-11-21T07:17:23.547Z,100195.63
2022-11-21T07:19:55.426Z,100198.59
2022-11-21T07:22:24.566Z,100185.44
2022-11-21T07:24:53.777Z,100192.50
2022-11-21T07:27:23.146Z,100186.38
2022-11-21T07:29:52.296Z,100197.50
2022-11-21T07:32:21.581Z,100194.38
2022-11-21T07:34:50.791Z,100196.28
2022-11-21T07:37:22.305Z,100209.06
2022-11-21T07:39:51.596Z,100194.59
2022-11-21T07:42:20.832Z,100195.75
2022-11-21T07:44:49.980Z,100191.50
2022-11-21T07:47:19.256Z,100196.22
2022-11-21T07:49:50.194Z,100196.38
2022-11-21T07:52:26.508Z,100199.03
2022-11-21T07:54:55.698Z,100183.34
2022-11-21T07:57:24.921Z,100205.50
2022-11-21T08:02:30.055Z,100195.31
2022-11-21T08:07:41.789Z,100200.59
2022-11-21T08:10:11.333Z,100179.31
2022-11-21T08:12:41.247Z,100202.44
2022-11-21T08:15:16.420Z,100194.31
2022-11-21T08:17:45.809Z,100197.09
2022-11-21T08:20:15.491Z,100195.13
2022-11-21T08:22:46.820Z,100192.38
2022-11-21T08:25:16.455Z,100200.06
2022-11-21T08:27:45.559Z,100194.19
2022-11-21T08:30:16.458Z,100177.75
2022-11-21T08:32:45.717Z,100173.66
2022-11-21T08:35:14.842Z,100174.44
2022-11-21T08:37:46.103Z,100193.31
2022-11-21T08:40:15.457Z,100191.03
2022-11-21T08:42:45.589Z,100178.94
2022-11-21T08:45:14.660Z,100203.03
2022-11-21T08:47:44.520Z,100203.75
2022-11-21T08:50:14.202Z,100182.03
2022-11-21T08:52:45.543Z,100185.34
2022-11-21T08:55:15.388Z,100203.91
2022-11-21T08:57:49.548Z,100198.13
2022-11-21T09:00:19.383Z,100197.91
2022-11-21T09:02:48.620Z,100188.69
2022-11-21T09:05:18.039Z,100187.41
2022-11-21T09:07:49.562Z,100177.22
2022-11-21T09:10:19.026Z,100186.31
2022-11-21T09:12:48.393Z,100173.66
2022-11-21T09:15:30.720Z,100175.78
2022-11-21T09:18:07.451Z,100158.63
2022-11-21T09:20:42.263Z,100177.28
2022-11-21T09:23:14.973Z,100169.22
2022-11-21T09:25:45.046Z,100165.56
2022-11-21T09:28:15.791Z,100135.56
2022-11-21T09:30:46.327Z,100170.91
2022-11-21T09:33:17.089Z,100160.94
2022-11-21T09:35:51.687Z,100152.59
2022-11-21T09:38:24.359Z,100161.00
2022-11-21T09:40:58.952Z,100147.00
2022-11-21T09:43:46.787Z,100149.53
2022-11-21T09:46:30.404Z,100165.59
2022-11-21T09:49:03.089Z,100164.78
2022-11-21T09:51:33.623Z,100144.09
2022-11-21T09:54:07.480Z,100161.50
2022-11-21T09:56:50.881Z,100140.94
2022-11-21T09:59:34.894Z,100137.47
2022-11-21T10:02:22.712Z,100136.19
2022-11-21T10:04:54.465Z,100141.44
2022-11-21T10:07:27.881Z,100142.44
2022-11-21T10:10:19.759Z,100125.38
2022-11-21T10:13:08.111Z,100146.81
2022-11-21T10:15:52.200Z,100149.06
2022-11-21T10:18:47.234Z,100134.25
2022-11-21T10:21:34.310Z,100119.22
2022-11-21T10:24:19.266Z,100139.59
2022-11-21T10:26:55.576Z,100136.13
2022-11-21T10:29:29.834Z,100125.00
2022-11-21T10:32:04.802Z,100126.56
2022-11-21T10:34:43.943Z,100137.94
2022-11-21T10:37:18.964Z,100134.00
2022-11-21T10:39:51.811Z,100117.38
2022-11-21T10:42:34.262Z,100109.63
2022-11-21T10:45:17.953Z,100093.44
2022-11-21T10:47:48.729Z,100077.13
2022-11-21T10:50:34.476Z,100079.72
2022-11-21T10:53:41.059Z,100101.84
2022-11-21T10:56:14.553Z,100117.09
2022-11-21T10:58:48.368Z,100110.75
2022-11-21T11:01:29.832Z,100101.53
2022-11-21T11:04:27.793Z,100094.66
2022-11-21T11:09:36.272Z,100094.94
2022-11-21T11:12:47.602Z,100096.84
2022-11-21T11:15:25.183Z,100089.47
2022-11-21T11:17:57.430Z,100078.06
2022-11-21T11:20:39.603Z,100049.78
2022-11-21T11:23:28.383Z,100059.81
2022-11-21T11:25:59.510Z,100049.94
2022-11-21T11:28:35.610Z,100055.47
2022-11-21T11:31:07.094Z,100057.66
2022-11-21T11:33:42.704Z,100049.28
2022-11-21T11:36:15.821Z,100068.44
2022-11-21T11:38:50.602Z,100069.66
2022-11-21T11:42:01.977Z,100060.59
2022-11-21T11:44:54.484Z,100046.16
2022-11-21T11:47:32.828Z,100062.59
2022-11-21T11:50:14.562Z,100060.22
2022-11-21T11:52:54.120Z,100087.50
2022-11-21T11:55:31.432Z,100083.75
2022-11-21T11:58:13.084Z,100073.56
2022-11-21T12:00:52.577Z,100072.13
2022-11-21T12:03:31.288Z,100060.66
2022-11-21T12:06:09.600Z,100028.31
2022-11-21T12:08:47.600Z,100053.09
2022-11-21T12:11:45.354Z,100060.22
2022-11-21T12:14:34.857Z,100031.31
2022-11-21T12:17:07.719Z,100044.50
2022-11-21T12:19:40.339Z,100056.44
2022-11-21T12:22:14.638Z,100065.75
2022-11-21T12:24:43.919Z,100035.13
2022-11-21T12:27:34.495Z,100075.63
2022-11-21T12:30:23.094Z,100060.69
2022-11-21T12:33:06.617Z,100045.31
2022-11-21T12:36:16.750Z,100040.00
2022-11-21T12:39:09.137Z,100047.75
2022-11-21T12:41:58.676Z,100050.28
2022-11-21T12:44:40.903Z,100071.44
2022-11-21T12:47:25.350Z,100074.91
2022-11-21T12:55:37.053Z,100071.59
2022-11-21T12:58:16.868Z,100063.84
2022-11-21T13:00:57.304Z,100072.22
2022-11-21T13:03:45.953Z,100066.44
2022-11-21T13:06:19.820Z,100065.34
2022-11-21T13:08:51.365Z,100065.28
2022-11-21T13:11:51.189Z,100070.66
2022-11-21T13:14:27.313Z,100036.38
2022-11-21T13:17:10.899Z,100046.78
2022-11-21T13:19:50.565Z,100024.53
2022-11-21T13:22:49.442Z,100039.88
2022-11-21T13:25:48.073Z,100036.38
2022-11-21T13:28:45.837Z,100037.00
2022-11-21T13:31:30.490Z,100042.91
2022-11-21T13:34:00.378Z,100049.63
2022-11-21T13:36:43.709Z,100051.28
2022-11-21T13:39:31.691Z,100044.97
2022-11-21T13:42:19.918Z,100042.50
2022-11-21T13:44:53.565Z,100014.72
2022-11-21T13:47:56.669Z,100043.94
2022-11-21T13:50:45.290Z,100028.56
2022-11-21T13:53:30.883Z,100014.41
2022-11-21T13:56:12.853Z,100009.13
2022-11-21T13:58:56.387Z,100052.31
2022-11-21T14:01:58.360Z,100045.53
2022-11-21T14:05:05.348Z,100040.56
2022-11-21T14:07:37.363Z,100041.88
2022-11-21T14:10:20.062Z,100045.34
2022-11-21T14:12:51.643Z,100028.13
2022-11-21T14:15:32.673Z,100030.66
2022-11-21T14:18:04.587Z,100025.72
2022-11-21T14:20:50.321Z,100035.25
2022-11-21T14:23:21.965Z,100038.91
2022-11-21T14:25:53.562Z,100026.19
2022-11-21T14:28:26.491Z,100031.09
2022-11-21T14:30:59.325Z,100020.63
2022-11-21T14:33:37.148Z,100042.59
2022-11-21T14:36:16.207Z,100016.84
2022-11-21T14:38:51.006Z,100018.63
2022-11-21T14:41:33.803Z,100038.53
2022-11-21T14:44:09.940Z,100028.53
2022-11-21T14:46:40.826Z,100032.72
2022-11-21T14:49:25.204Z,100034.78
2022-11-21T14:52:00.760Z,100037.13
2022-11-21T14:54:38.516Z,100001.31
2022-11-21T14:57:09.893Z,100031.78
2022-11-21T14:59:43.160Z,100020.66
2022-11-21T15:02:15.028Z,100038.75
2022-11-21T15:07:23.690Z,100041.44
2022-11-21T15:12:54.388Z,100031.25
2022-11-21T15:15:32.907Z,100029.88
2022-11-21T15:18:27.377Z,100008.97
2022-11-21T15:21:00.056Z,100002.69
2022-11-21T15:23:31.480Z,100024.06
2022-11-21T15:26:06.678Z,100010.72
2022-11-21T15:28:35.868Z,100021.28
2022-11-21T15:31:18.922Z,100023.59
2022-11-21T15:34:27.776Z,99999.91
2022-11-21T15:37:10.450Z,100005.13
2022-11-21T15:39:45.836Z,100018.47
2022-11-21T15:42:36.022Z,99998.06
2022-11-21T15:45:26.458Z,100004.94
2022-11-21T15:47:56.387Z,99983.66
2022-11-21T15:50:27.171Z,99982.22
2022-11-21T15:52:58.634Z,99993.00
2022-11-21T15:55:31.049Z,99997.38
2022-11-21T15:58:05.578Z,100005.25
2022-11-21T16:00:35.263Z,100014.97
2022-11-21T16:03:04.433Z,100005.97
2022-11-21T16:05:33.783Z,100002.88
2022-11-21T16:08:04.962Z,99993.44
2022-11-21T16:10:40.730Z,99995.97
2022-11-21T16:13:14.984Z,99997.53
2022-11-21T16:15:44.163Z,100000.59
2022-11-21T16:18:13.410Z,99999.66
2022-11-21T16:20:42.676Z,100006.53
2022-11-21T16:23:14.437Z,100005.53
2022-11-21T16:25:55.058Z,99991.53
2022-11-21T16:28:24.753Z,99997.53
2022-11-21T16:30:54.063Z,100015.50
2022-11-21T16:33:27.153Z,100010.88
2022-11-21T16:35:57.316Z,99996.81
2022-11-21T16:38:30.256Z,99992.81
2022-11-21T16:41:06.139Z,99998.34
2022-11-21T16:43:35.380Z,99997.63
2022-11-21T16:46:09.739Z,99972.78
2022-11-21T16:48:40.666Z,100008.97
2022-11-21T16:51:14.260Z,99986.09
2022-11-21T16:53:45.918Z,100003.69
2022-11-21T16:56:15.787Z,100007.16
2022-11-21T16:58:45.273Z,100005.53
2022-11-21T17:01:16.371Z,99991.53
2022-11-21T17:03:47.662Z,99993.53
2022-11-21T17:06:19.555Z,99973.16
2022-11-21T17:08:50.613Z,99986.88
2022-11-21T17:11:22.037Z,99973.41
2022-11-21T17:13:52.941Z,99960.06
2022-11-21T17:16:23.864Z,99982.41
2022-11-21T17:18:55.531Z,99969.53
2022-11-21T17:21:25.566Z,99973.53
2022-11-21T17:23:56.985Z,99929.75
2022-11-21T17:29:04.568Z,99977.28
2022-11-21T17:31:34.139Z,99972.28
2022-11-21T17:34:04.152Z,99970.16
2022-11-21T17:36:34.183Z,99974.66
2022-11-21T17:39:12.324Z,99971.72
2022-11-21T17:41:41.774Z,99956.19
2022-11-21T17:44:14.887Z,99956.75
2022-11-21T17:46:44.325Z,99935.91
2022-11-21T17:49:14.023Z,99962.03
2022-11-21T17:51:43.894Z,99946.72
2022-11-21T17:54:15.306Z,99924.09
2022-11-21T17:56:47.388Z,99965.75
2022-11-21T17:59:20.832Z,99967.06
2022-11-21T18:01:58.498Z,99915.06
2022-11-21T18:04:28.281Z,99968.53
2022-11-21T18:06:58.268Z,99962.47
2022-11-21T18:09:30.201Z,99965.31
2022-11-21T18:12:00.283Z,99946.50
2022-11-21T18:14:30.702Z,99976.84
2022-11-21T18:16:59.994Z,99974.94
2022-11-21T18:19:29.267Z,99977.41
2022-11-21T18:24:40.909Z,99942.28
2022-11-21T18:27:10.423Z,99951.06
2022-11-21T18:29:44.860Z,99949.16
2022-11-21T18:32:14.206Z,99895.56
2022-11-21T18:34:43.814Z,99948.16
2022-11-21T18:37:18.376Z,99945.28
2022-11-21T18:39:49.842Z,99942.75
2022-11-21T18:42:19.114Z,99944.59
2022-11-21T18:44:48.585Z,99943.97
2022-11-21T18:47:20.927Z,99935.28
2022-11-21T18:49:55.708Z,99919.25
2022-11-21T18:52:25.059Z,99940.97
2022-11-21T18:54:56.335Z,99935.81
2022-11-21T18:57:25.774Z,99922.41
2022-11-21T18:59:55.070Z,99934.72
2022-11-21T19:02:29.657Z,99930.06
2022-11-21T19:04:58.913Z,99930.13
2022-11-21T19:07:28.480Z,99918.28
2022-11-21T19:10:20.661Z,99936.94
2022-11-21T19:12:49.400Z,99927.94
2022-11-21T19:15:23.697Z,99908.56
2022-11-21T19:17:52.978Z,99903.66
2022-11-21T19:20:22.233Z,99902.31
2022-11-21T19:22:52.220Z,99902.59
2022-11-21T19:25:23.565Z,99910.41
2022-11-21T19:27:59.579Z,99906.38
2022-11-21T19:30:30.012Z,99900.31
2022-11-21T19:33:06.617Z,99912.31
2022-11-21T19:35:39.350Z,99899.59
2022-11-21T19:41:03.633Z,99888.00
2022-11-21T19:43:33.724Z,99890.44
2022-11-21T19:46:05.009Z,99893.75
2022-11-21T19:48:34.481Z,99882.28
2022-11-21T19:51:05.278Z,99886.53
2022-11-21T19:53:37.960Z,99886.94
2022-11-21T19:56:14.873Z,99885.97
2022-11-21T19:58:49.865Z,99882.81
2022-11-21T20:01:21.219Z,99875.56
2022-11-21T20:03:52.437Z,99884.41
2022-11-21T20:06:23.908Z,99877.47
2022-11-21T20:08:55.104Z,99840.41
2022-11-21T20:11:28.387Z,99861.47
2022-11-21T20:13:57.934Z,99854.44
2022-11-21T20:16:28.919Z,99829.00
2022-11-21T20:19:07.757Z,99851.91
2022-11-21T20:21:38.652Z,99861.63
2022-11-21T20:24:14.215Z,99868.97
2022-11-21T20:26:46.721Z,99872.41
2022-11-21T20:29:16.600Z,99872.97
2022-11-21T20:31:47.841Z,99855.06
2022-11-21T20:34:17.137Z,99871.63
2022-11-21T20:36:46.440Z,99849.78
2022-11-21T20:39:16.823Z,99863.69
2022-11-21T20:41:55.343Z,99878.59
2022-11-21T20:47:18.928Z,99869.09
2022-11-21T20:49:48.149Z,99858.88
2022-11-21T20:55:12.779Z,99851.44
2022-11-21T20:57:44.123Z,99838.53
2022-11-21T21:00:15.636Z,99857.34
2022-11-21T21:02:44.900Z,99842.00
2022-11-21T21:05:14.099Z,99850.34
2022-11-21T21:07:43.442Z,99845.59
2022-11-21T21:10:12.969Z,99831.81
2022-11-21T21:12:48.487Z,99860.41
2022-11-21T21:15:18.268Z,99830.31
2022-11-21T21:17:47.434Z,99823.94
2022-11-21T21:20:16.803Z,99854.28
2022-11-21T21:22:45.986Z,99826.19
2022-11-21T21:25:15.420Z,99843.56
2022-11-21T21:27:49.886Z,99855.22
2022-11-21T21:30:20.391Z,99855.22
2022-11-21T21:32:49.485Z,99807.22
2022-11-21T21:35:19.104Z,99824.25
2022-11-21T21:37:48.400Z,99814.41
2022-11-21T21:40:18.666Z,99823.47
2022-11-21T21:42:50.023Z,99802.88
2022-11-21T21:45:19.644Z,99795.38
2022-11-21T21:47:48.982Z,99820.00
2022-11-21T21:50:23.291Z,99824.63
2022-11-21T21:52:52.470Z,99827.31
2022-11-21T21:55:21.739Z,99823.47
2022-11-21T21:57:53.309Z,99830.97
2022-11-21T22:00:22.750Z,99805.22
2022-11-21T22:02:51.912Z,99832.28
2022-11-21T22:05:26.166Z,99818.88
2022-11-21T22:07:55.464Z,99831.09
2022-11-21T22:10:24.680Z,99812.50
2022-11-21T22:12:56.711Z,99811.69
2022-11-21T22:15:26.017Z,99815.31
2022-11-21T22:17:55.260Z,99813.72
2022-11-21T22:20:24.494Z,99808.53
2022-11-21T22:22:57.648Z,99795.06
2022-11-21T22:25:34.624Z,99793.56
2022-11-21T22:28:06.139Z,99777.00
2022-11-21T22:30:35.439Z,99788.97
2022-11-21T22:33:04.689Z,99788.34
2022-11-21T22:35:34.353Z,99759.78
2022-11-21T22:38:03.698Z,99752.25
2022-11-21T22:40:33.894Z,99761.53
2022-11-21T22:43:03.093Z,99758.31
2022-11-21T22:45:34.852Z,99750.22
2022-11-21T22:48:03.728Z,99733.63
2022-11-21T22:50:33.231Z,99704.03
2022-11-21T22:53:02.608Z,99731.59
2022-11-21T22:55:31.795Z,99706.22
2022-11-21T22:58:01.119Z,99712.06
2022-11-21T23:00:42.627Z,99704.25
2022-11-21T23:03:12.417Z,99698.09
2022-11-21T23:05:41.550Z,99683.72
2022-11-21T23:08:10.802Z,99697.88
2022-11-21T23:10:39.953Z,99671.47
2022-11-21T23:13:09.285Z,99684.97
2022-11-21T23:15:40.475Z,99693.47
2022-11-21T23:18:14.830Z,99686.94
2022-11-21T23:20:45.283Z,99680.56
2022-11-21T23:23:14.396Z,99658.56
2022-11-21T23:25:43.516Z,99669.19
2022-11-21T23:28:12.971Z,99660.53
2022-11-21T23:30:46.722Z,99687.78
2022-11-21T23:33:21.237Z,99679.44
2022-11-21T23:35:50.893Z,99685.63
2022-11-21T23:38:20.374Z,99693.06
2022-11-21T23:40:51.110Z,99676.00
2022-11-21T23:43:20.967Z,99671.22
2022-11-21T23:45:55.070Z,99662.28
2022-11-21T23:48:25.478Z,99672.97
2022-11-21T23:50:54.654Z,99665.41
2022-11-21T23:53:29.622Z,99660.84
2022-11-21T23:55:58.899Z,99626.09
2022-11-21T23:58:28.067Z,99609.50
